createdAt,value
2018-05-02T00:00:24.081Z,97711.66
2018-05-02T00:00:55.729Z,97719.75
2018-05-02T00:01:27.373Z,97717.19
2018-05-02T00:01:58.944Z,97718.47
2018-05-02T00:02:30.545Z,97723.59
2018-05-02T00:03:02.130Z,97718.08
2018-05-02T00:03:33.724Z,97720.63
2018-05-02T00:04:05.339Z,97718.49
2018-05-02T00:04:36.922Z,97716.85
2018-05-02T00:05:08.512Z,97721.89
2018-05-02T00:05:40.117Z,97725.74
2018-05-02T00:06:11.762Z,97718.49
2018-05-02T00:06:43.377Z,97724.05
2018-05-02T00:07:14.958Z,97720.67
2018-05-02T00:07:46.564Z,97723.61
2018-05-02T00:08:18.202Z,97720.25
2018-05-02T00:08:49.814Z,97721.11
2018-05-02T00:09:21.431Z,97719.40
2018-05-02T00:09:53.018Z,97721.55
2018-05-02T00:10:24.589Z,97718.98
2018-05-02T00:10:56.189Z,97721.11
2018-05-02T00:11:27.812Z,97722.77
2018-05-02T00:11:59.393Z,97711.76
2018-05-02T00:12:30.977Z,97721.87
2018-05-02T00:13:02.602Z,97724.02
2018-05-02T00:13:34.238Z,97724.39
2018-05-02T00:14:05.847Z,97722.67
2018-05-02T00:14:37.458Z,97719.25
2018-05-02T00:15:09.032Z,97718.41
2018-05-02T00:15:40.642Z,97718.40
2018-05-02T00:16:12.225Z,97722.23
2018-05-02T00:16:43.821Z,97720.95
2018-05-02T00:17:15.429Z,97718.41
2018-05-02T00:17:47.019Z,97714.64
2018-05-02T00:18:18.622Z,97719.23
2018-05-02T00:18:50.274Z,97720.95
2018-05-02T00:19:21.886Z,97717.07
2018-05-02T00:19:53.493Z,97715.36
2018-05-02T00:20:25.097Z,97713.64
2018-05-02T00:20:56.702Z,97720.03
2018-05-02T00:21:28.287Z,97719.19
2018-05-02T00:21:59.914Z,97717.05
2018-05-02T00:22:31.509Z,97715.78
2018-05-02T00:23:03.113Z,97716.63
2018-05-02T00:23:34.692Z,97717.91
2018-05-02T00:24:06.318Z,97714.94
2018-05-02T00:24:37.913Z,97723.09
2018-05-02T00:25:09.508Z,97719.28
2018-05-02T00:25:41.081Z,97718.42
2018-05-02T00:26:12.681Z,97718.42
2018-05-02T00:26:44.295Z,97721.84
2018-05-02T00:27:15.881Z,97715.49
2018-05-02T00:27:47.514Z,97726.09
2018-05-02T00:28:19.090Z,97719.34
2018-05-02T00:28:50.698Z,97726.56
2018-05-02T00:29:22.326Z,97725.32
2018-05-02T00:29:53.929Z,97727.00
2018-05-02T00:30:25.523Z,97723.63
2018-05-02T00:30:57.129Z,97727.02
2018-05-02T00:31:28.714Z,97728.30
2018-05-02T00:32:00.302Z,97722.34
2018-05-02T00:32:31.914Z,97717.23
2018-05-02T00:33:03.521Z,97721.05
2018-05-02T00:33:35.107Z,97724.51
2018-05-02T00:34:06.749Z,97715.16
2018-05-02T00:34:38.332Z,97721.11
2018-05-02T00:35:09.918Z,97720.69
2018-05-02T00:35:41.509Z,97724.90
2018-05-02T00:36:13.083Z,97725.31
2018-05-02T00:36:44.690Z,97721.87
2018-05-02T00:37:16.288Z,97724.86
2018-05-02T00:37:47.888Z,97725.66
2018-05-02T00:38:19.473Z,97722.24
2018-05-02T00:38:51.074Z,97720.47
2018-05-02T00:39:22.706Z,97725.62
2018-05-02T00:39:54.315Z,97722.19
2018-05-02T00:40:25.899Z,97717.96
2018-05-02T00:40:57.507Z,97712.02
2018-05-02T00:41:29.118Z,97711.52
2018-05-02T00:42:00.700Z,97714.52
2018-05-02T00:42:32.271Z,97711.10
2018-05-02T00:43:03.871Z,97714.08
2018-05-02T00:43:35.518Z,97714.08
2018-05-02T00:44:07.113Z,97712.80
2018-05-02T00:44:38.722Z,97713.64
2018-05-02T00:45:10.319Z,97714.13
2018-05-02T00:45:41.930Z,97715.78
2018-05-02T00:46:13.518Z,97716.69
2018-05-02T00:46:45.098Z,97716.27
2018-05-02T00:47:16.682Z,97719.67
2018-05-02T00:47:48.286Z,97721.37
2018-05-02T00:48:19.881Z,97720.95
2018-05-02T00:48:51.496Z,97722.61
2018-05-02T00:49:23.109Z,97717.97
2018-05-02T00:49:54.698Z,97720.53
2018-05-02T00:50:26.342Z,97723.51
2018-05-02T00:50:57.953Z,97720.56
2018-05-02T00:51:29.534Z,97722.30
2018-05-02T00:52:01.118Z,97728.70
2018-05-02T00:52:32.707Z,97724.03
2018-05-02T00:53:04.292Z,97725.73
2018-05-02T00:53:35.866Z,97727.86
2018-05-02T00:54:07.449Z,97723.23
2018-05-02T00:54:39.040Z,97721.97
2018-05-02T00:55:10.654Z,97722.34
2018-05-02T00:55:42.268Z,97717.28
2018-05-02T00:56:13.894Z,97715.60
2018-05-02T00:56:45.468Z,97711.39
2018-05-02T00:57:17.060Z,97710.61
2018-05-02T00:57:48.669Z,97709.33
2018-05-02T00:58:20.262Z,97712.76
2018-05-02T00:58:51.856Z,97705.03
2018-05-02T00:59:23.441Z,97712.23
2018-05-02T00:59:55.032Z,97706.23
2018-05-02T01:00:26.642Z,97709.26
2018-05-02T01:00:58.266Z,97704.58
2018-05-02T01:01:29.849Z,97706.72
2018-05-02T01:02:01.461Z,97707.16
2018-05-02T01:02:33.050Z,97705.08
2018-05-02T01:03:04.634Z,97708.06
2018-05-02T01:03:36.243Z,97706.80
2018-05-02T01:04:07.861Z,97702.56
2018-05-02T01:04:39.470Z,97703.41
2018-05-02T01:05:11.082Z,97706.44
2018-05-02T01:05:42.697Z,97697.50
2018-05-02T01:06:14.328Z,97701.77
2018-05-02T01:06:45.928Z,97698.38
2018-05-02T01:07:17.504Z,97698.38
2018-05-02T01:07:49.121Z,97700.52
2018-05-02T01:08:20.699Z,97698.84
2018-05-02T01:08:52.282Z,97698.86
2018-05-02T01:09:23.909Z,97703.98
2018-05-02T01:09:55.502Z,97703.61
2018-05-02T01:10:27.072Z,97701.91
2018-05-02T01:10:58.663Z,97706.16
2018-05-02T01:11:30.265Z,97699.37
2018-05-02T01:12:01.877Z,97702.77
2018-05-02T01:12:33.456Z,97702.77
2018-05-02T01:13:05.068Z,97701.94
2018-05-02T01:13:36.640Z,97703.22
2018-05-02T01:14:08.231Z,97701.09
2018-05-02T01:14:39.839Z,97698.53
2018-05-02T01:15:11.450Z,97694.35
2018-05-02T01:15:43.027Z,97697.72
2018-05-02T01:16:14.606Z,97688.36
2018-05-02T01:16:46.232Z,97690.49
2018-05-02T01:17:17.818Z,97692.63
2018-05-02T01:17:49.420Z,97692.20
2018-05-02T01:18:21.006Z,97688.01
2018-05-02T01:18:52.610Z,97692.20
2018-05-02T01:19:24.198Z,97693.91
2018-05-02T01:19:55.802Z,97684.13
2018-05-02T01:20:27.398Z,97687.53
2018-05-02T01:20:58.978Z,97684.97
2018-05-02T01:21:30.589Z,97687.54
2018-05-02T01:22:02.219Z,97680.30
2018-05-02T01:22:33.825Z,97684.56
2018-05-02T01:23:05.441Z,97679.88
2018-05-02T01:23:37.030Z,97682.44
2018-05-02T01:24:08.623Z,97679.06
2018-05-02T01:24:40.220Z,97683.71
2018-05-02T01:25:11.830Z,97686.69
2018-05-02T01:25:43.417Z,97682.44
2018-05-02T01:26:15.002Z,97686.73
2018-05-02T01:26:46.576Z,97687.59
2018-05-02T01:27:18.198Z,97688.81
2018-05-02T01:27:49.785Z,97693.08
2018-05-02T01:28:21.375Z,97692.23
2018-05-02T01:28:52.963Z,97686.31
2018-05-02T01:29:24.561Z,97692.70
2018-05-02T01:29:56.146Z,97687.59
2018-05-02T01:30:27.729Z,97690.58
2018-05-02T01:30:59.365Z,97696.55
2018-05-02T01:31:30.937Z,97692.29
2018-05-02T01:32:02.518Z,97699.53
2018-05-02T01:32:34.122Z,97689.31
2018-05-02T01:33:05.793Z,97692.72
2018-05-02T01:33:37.386Z,97695.70
2018-05-02T01:34:08.964Z,97696.97
2018-05-02T01:34:40.569Z,97694.84
2018-05-02T01:35:12.178Z,97694.77
2018-05-02T01:35:43.761Z,97693.06
2018-05-02T01:36:15.351Z,97696.06
2018-05-02T01:36:46.949Z,97699.00
2018-05-02T01:37:18.530Z,97688.73
2018-05-02T01:37:50.153Z,97701.41
2018-05-02T01:38:21.737Z,97697.14
2018-05-02T01:38:53.346Z,97694.95
2018-05-02T01:39:24.925Z,97694.52
2018-05-02T01:39:56.535Z,97699.61
2018-05-02T01:40:28.118Z,97690.63
2018-05-02T01:40:59.719Z,97697.84
2018-05-02T01:41:31.303Z,97692.25
2018-05-02T01:42:02.882Z,97706.30
2018-05-02T01:42:34.507Z,97705.08
2018-05-02T01:43:06.094Z,97706.73
2018-05-02T01:43:37.694Z,97705.08
2018-05-02T01:44:09.337Z,97706.72
2018-05-02T01:44:40.904Z,97695.66
2018-05-02T01:45:12.514Z,97698.61
2018-05-02T01:45:44.127Z,97696.91
2018-05-02T01:46:15.709Z,97701.61
2018-05-02T01:46:47.283Z,97698.63
2018-05-02T01:47:18.870Z,97694.39
2018-05-02T01:47:50.482Z,97694.02
2018-05-02T01:48:22.070Z,97694.02
2018-05-02T01:48:53.677Z,97701.75
2018-05-02T01:49:25.336Z,97697.08
2018-05-02T01:49:56.930Z,97699.64
2018-05-02T01:50:28.538Z,97693.73
2018-05-02T01:51:00.122Z,97695.45
2018-05-02T01:51:31.730Z,97700.13
2018-05-02T01:52:03.314Z,97698.45
2018-05-02T01:52:34.898Z,97697.66
2018-05-02T01:53:06.486Z,97702.72
2018-05-02T01:53:38.066Z,97696.75
2018-05-02T01:54:09.675Z,97696.68
2018-05-02T01:54:41.329Z,97701.77
2018-05-02T01:55:12.938Z,97702.11
2018-05-02T01:55:44.550Z,97702.47
2018-05-02T01:56:16.132Z,97698.18
2018-05-02T01:56:47.724Z,97702.89
2018-05-02T01:57:19.301Z,97701.68
2018-05-02T01:57:50.906Z,97697.49
2018-05-02T01:58:22.508Z,97699.23
2018-05-02T01:58:54.102Z,97701.42
2018-05-02T01:59:25.685Z,97703.98
2018-05-02T01:59:57.342Z,97698.44
2018-05-02T02:00:28.930Z,97698.87
2018-05-02T02:01:00.534Z,97703.61
2018-05-02T02:01:32.122Z,97701.06
2018-05-02T02:02:03.706Z,97704.05
2018-05-02T02:02:35.323Z,97708.76
2018-05-02T02:03:06.920Z,97716.05
2018-05-02T02:03:38.510Z,97710.09
2018-05-02T02:04:10.115Z,97716.06
2018-05-02T02:04:41.721Z,97717.34
2018-05-02T02:05:13.371Z,97718.18
2018-05-02T02:05:44.960Z,97713.52
2018-05-02T02:06:16.550Z,97717.34
2018-05-02T02:06:48.138Z,97723.67
2018-05-02T02:07:19.753Z,97720.24
2018-05-02T02:07:51.334Z,97723.28
2018-05-02T02:08:22.927Z,97721.11
2018-05-02T02:08:54.514Z,97714.70
2018-05-02T02:09:26.119Z,97710.08
2018-05-02T02:09:57.706Z,97717.28
2018-05-02T02:10:29.292Z,97716.05
2018-05-02T02:11:00.942Z,97719.88
2018-05-02T02:11:32.568Z,97717.77
2018-05-02T02:12:04.219Z,97720.33
2018-05-02T02:12:35.830Z,97719.55
2018-05-02T02:13:07.407Z,97721.60
2018-05-02T02:13:39.014Z,97723.73
2018-05-02T02:14:10.641Z,97720.76
2018-05-02T02:14:42.267Z,97722.04
2018-05-02T02:15:13.896Z,97716.56
2018-05-02T02:15:45.492Z,97721.23
2018-05-02T02:16:17.097Z,97719.11
2018-05-02T02:16:48.679Z,97716.98
2018-05-02T02:17:20.286Z,97716.55
2018-05-02T02:17:51.893Z,97716.98
2018-05-02T02:18:23.474Z,97717.00
2018-05-02T02:18:55.046Z,97720.83
2018-05-02T02:19:26.658Z,97717.00
2018-05-02T02:19:58.265Z,97717.44
2018-05-02T02:20:29.864Z,97720.03
2018-05-02T02:21:01.455Z,97721.73
2018-05-02T02:21:33.067Z,97716.20
2018-05-02T02:22:04.667Z,97713.59
2018-05-02T02:22:36.263Z,97714.87
2018-05-02T02:23:07.870Z,97713.16
2018-05-02T02:23:39.455Z,97711.03
2018-05-02T02:24:11.038Z,97717.42
2018-05-02T02:24:42.608Z,97716.58
2018-05-02T02:25:14.249Z,97716.14
2018-05-02T02:25:45.853Z,97709.77
2018-05-02T02:26:17.461Z,97707.26
2018-05-02T02:26:49.049Z,97710.23
2018-05-02T02:27:20.660Z,97710.23
2018-05-02T02:27:52.314Z,97710.25
2018-05-02T02:28:23.917Z,97709.83
2018-05-02T02:28:55.516Z,97711.53
2018-05-02T02:29:27.101Z,97705.15
2018-05-02T02:29:58.683Z,97703.50
2018-05-02T02:30:30.302Z,97696.64
2018-05-02T02:31:01.929Z,97697.92
2018-05-02T02:31:33.514Z,97698.78
2018-05-02T02:32:05.098Z,97694.13
2018-05-02T02:32:36.726Z,97696.64
2018-05-02T02:33:08.314Z,97698.78
2018-05-02T02:33:39.894Z,97692.43
2018-05-02T02:34:11.528Z,97688.16
2018-05-02T02:34:43.114Z,97680.53
2018-05-02T02:35:14.690Z,97685.19
2018-05-02T02:35:46.266Z,97682.22
2018-05-02T02:36:17.845Z,97680.94
2018-05-02T02:36:49.426Z,97680.45
2018-05-02T02:37:21.032Z,97682.58
2018-05-02T02:37:52.642Z,97690.24
2018-05-02T02:38:24.290Z,97689.40
2018-05-02T02:38:55.884Z,97692.81
2018-05-02T02:39:27.491Z,97686.42
2018-05-02T02:39:59.102Z,97694.13
2018-05-02T02:40:30.702Z,97690.30
2018-05-02T02:41:02.306Z,97694.55
2018-05-02T02:41:33.920Z,97692.85
2018-05-02T02:42:05.545Z,97690.30
2018-05-02T02:42:37.158Z,97687.32
2018-05-02T02:43:08.746Z,97686.49
2018-05-02T02:43:40.375Z,97687.34
2018-05-02T02:44:11.968Z,97686.91
2018-05-02T02:44:43.579Z,97690.73
2018-05-02T02:45:15.176Z,97684.34
2018-05-02T02:45:46.770Z,97692.45
2018-05-02T02:46:18.350Z,97691.59
2018-05-02T02:46:49.925Z,97688.20
2018-05-02T02:47:21.578Z,97687.78
2018-05-02T02:47:53.166Z,97690.34
2018-05-02T02:48:24.760Z,97686.97
2018-05-02T02:48:56.411Z,97688.25
2018-05-02T02:49:27.992Z,97689.48
2018-05-02T02:49:59.564Z,97684.37
2018-05-02T02:50:31.157Z,97685.65
2018-05-02T02:51:02.740Z,97694.17
2018-05-02T02:51:34.308Z,97687.78
2018-05-02T02:52:05.885Z,97689.95
2018-05-02T02:52:37.480Z,97685.23
2018-05-02T02:53:09.065Z,97685.65
2018-05-02T02:53:40.721Z,97685.23
2018-05-02T02:54:12.326Z,97685.65
2018-05-02T02:54:43.951Z,97682.28
2018-05-02T02:55:15.615Z,97683.16
2018-05-02T02:55:47.211Z,97679.31
2018-05-02T02:56:18.812Z,97681.00
2018-05-02T02:56:50.408Z,97675.55
2018-05-02T02:57:22.005Z,97674.63
2018-05-02T02:57:53.613Z,97676.77
2018-05-02T02:58:25.222Z,97682.30
2018-05-02T02:58:56.846Z,97679.73
2018-05-02T02:59:28.440Z,97678.89
2018-05-02T03:00:00.035Z,97679.75
2018-05-02T03:00:31.639Z,97680.61
2018-05-02T03:01:03.246Z,97681.03
2018-05-02T03:01:34.848Z,97678.89
2018-05-02T03:02:06.458Z,97675.50
2018-05-02T03:02:38.066Z,97677.20
2018-05-02T03:03:09.678Z,97683.16
2018-05-02T03:03:41.267Z,97679.31
2018-05-02T03:04:12.870Z,97691.58
2018-05-02T03:04:44.469Z,97681.78
2018-05-02T03:05:16.080Z,97691.50
2018-05-02T03:05:47.682Z,97683.78
2018-05-02T03:06:19.286Z,97686.75
2018-05-02T03:06:50.875Z,97689.67
2018-05-02T03:07:22.459Z,97691.36
2018-05-02T03:07:54.061Z,97689.21
2018-05-02T03:08:25.660Z,97684.95
2018-05-02T03:08:57.300Z,97685.76
2018-05-02T03:09:28.873Z,97690.86
2018-05-02T03:10:00.448Z,97688.72
2018-05-02T03:10:32.078Z,97684.44
2018-05-02T03:11:03.661Z,97687.45
2018-05-02T03:11:35.256Z,97688.66
2018-05-02T03:12:06.841Z,97688.70
2018-05-02T03:12:38.445Z,97687.87
2018-05-02T03:13:10.044Z,97687.87
2018-05-02T03:13:41.651Z,97686.60
2018-05-02T03:14:13.249Z,97686.59
2018-05-02T03:14:44.858Z,97687.02
2018-05-02T03:15:16.445Z,97687.43
2018-05-02T03:15:48.081Z,97686.57
2018-05-02T03:16:19.694Z,97692.96
2018-05-02T03:16:51.272Z,97687.08
2018-05-02T03:17:22.882Z,97686.16
2018-05-02T03:17:54.484Z,97688.66
2018-05-02T03:18:26.097Z,97693.33
2018-05-02T03:18:57.683Z,97689.91
2018-05-02T03:19:29.285Z,97686.45
2018-05-02T03:20:00.860Z,97691.56
2018-05-02T03:20:32.446Z,97692.03
2018-05-02T03:21:04.070Z,97687.30
2018-05-02T03:21:35.673Z,97686.45
2018-05-02T03:22:07.289Z,97691.13
2018-05-02T03:22:38.888Z,97693.69
2018-05-02T03:23:10.502Z,97698.78
2018-05-02T03:23:42.096Z,97692.89
2018-05-02T03:24:13.692Z,97697.94
2018-05-02T03:24:45.272Z,97698.42
2018-05-02T03:25:16.918Z,97694.53
2018-05-02T03:25:48.602Z,97688.97
2018-05-02T03:26:20.176Z,97693.22
2018-05-02T03:26:51.762Z,97689.41
2018-05-02T03:27:23.366Z,97694.11
2018-05-02T03:27:54.973Z,97694.13
2018-05-02T03:28:26.583Z,97689.90
2018-05-02T03:28:58.157Z,97691.11
2018-05-02T03:29:29.737Z,97687.73
2018-05-02T03:30:01.313Z,97686.88
2018-05-02T03:30:32.894Z,97689.02
2018-05-02T03:31:04.514Z,97686.06
2018-05-02T03:31:36.098Z,97690.76
2018-05-02T03:32:07.683Z,97691.19
2018-05-02T03:32:39.289Z,97688.58
2018-05-02T03:33:10.922Z,97685.16
2018-05-02T03:33:42.501Z,97691.56
2018-05-02T03:34:14.088Z,97684.79
2018-05-02T03:34:45.680Z,97683.52
2018-05-02T03:35:17.277Z,97683.95
2018-05-02T03:35:48.856Z,97685.59
2018-05-02T03:36:20.444Z,97678.35
2018-05-02T03:36:52.030Z,97680.48
2018-05-02T03:37:23.677Z,97678.35
2018-05-02T03:37:55.274Z,97677.56
2018-05-02T03:38:26.894Z,97678.41
2018-05-02T03:38:58.518Z,97678.84
2018-05-02T03:39:30.089Z,97672.89
2018-05-02T03:40:01.672Z,97671.20
2018-05-02T03:40:33.261Z,97676.30
2018-05-02T03:41:04.856Z,97673.31
2018-05-02T03:41:36.466Z,97670.82
2018-05-02T03:42:08.070Z,97666.55
2018-05-02T03:42:39.682Z,97669.06
2018-05-02T03:43:11.297Z,97669.48
2018-05-02T03:43:42.918Z,97669.06
2018-05-02T03:44:14.517Z,97671.17
2018-05-02T03:44:46.111Z,97665.62
2018-05-02T03:45:17.693Z,97671.13
2018-05-02T03:45:49.288Z,97671.59
2018-05-02T03:46:20.874Z,97673.73
2018-05-02T03:46:52.454Z,97669.92
2018-05-02T03:47:24.062Z,97679.77
2018-05-02T03:47:55.650Z,97674.67
2018-05-02T03:48:27.249Z,97672.11
2018-05-02T03:48:58.847Z,97667.26
2018-05-02T03:49:30.473Z,97674.25
2018-05-02T03:50:02.102Z,97675.16
2018-05-02T03:50:33.686Z,97672.60
2018-05-02T03:51:05.290Z,97675.59
2018-05-02T03:51:36.878Z,97672.63
2018-05-02T03:52:08.462Z,97676.05
2018-05-02T03:52:40.065Z,97671.83
2018-05-02T03:53:11.644Z,97681.63
2018-05-02T03:53:43.250Z,97679.94
2018-05-02T03:54:14.862Z,97679.11
2018-05-02T03:54:46.476Z,97684.22
2018-05-02T03:55:18.053Z,97683.83
2018-05-02T03:55:49.648Z,97688.09
2018-05-02T03:56:21.254Z,97685.53
2018-05-02T03:56:52.914Z,97676.19
2018-05-02T03:57:24.502Z,97686.42
2018-05-02T03:57:56.086Z,97680.03
2018-05-02T03:58:27.670Z,97678.75
2018-05-02T03:58:59.278Z,97682.16
2018-05-02T03:59:30.866Z,97679.22
2018-05-02T04:00:02.486Z,97680.08
2018-05-02T04:00:34.069Z,97680.52
2018-05-02T04:01:05.655Z,97681.37
2018-05-02T04:01:37.238Z,97685.63
2018-05-02T04:02:08.862Z,97683.08
2018-05-02T04:02:40.440Z,97680.09
2018-05-02T04:03:12.050Z,97685.64
2018-05-02T04:03:43.659Z,97682.66
2018-05-02T04:04:15.278Z,97684.37
2018-05-02T04:04:46.866Z,97681.86
2018-05-02T04:05:18.474Z,97681.39
2018-05-02T04:05:50.062Z,97681.39
2018-05-02T04:06:21.706Z,97683.94
2018-05-02T04:06:53.280Z,97686.12
2018-05-02T04:07:24.912Z,97687.34
2018-05-02T04:07:56.508Z,97683.52
2018-05-02T04:08:28.136Z,97682.23
2018-05-02T04:08:59.722Z,97680.96
2018-05-02T04:09:31.306Z,97681.00
2018-05-02T04:10:02.911Z,97689.91
2018-05-02T04:10:34.509Z,97685.23
2018-05-02T04:11:06.153Z,97687.34
2018-05-02T04:11:37.759Z,97683.94
2018-05-02T04:12:20.102Z,97677.13
2018-05-02T04:12:51.722Z,97680.12
2018-05-02T04:13:23.362Z,97680.96
2018-05-02T04:13:54.958Z,97687.77
2018-05-02T04:14:26.560Z,97682.23
2018-05-02T04:14:58.174Z,97681.47
2018-05-02T04:15:29.772Z,97681.38
2018-05-02T04:16:01.382Z,97681.79
2018-05-02T04:16:32.977Z,97685.55
2018-05-02T04:17:04.625Z,97685.97
2018-05-02T04:17:36.214Z,97682.14
2018-05-02T04:18:07.808Z,97683.36
2018-05-02T04:18:39.466Z,97679.99
2018-05-02T04:19:10.995Z,97680.84
2018-05-02T04:19:42.796Z,97678.67
2018-05-02T04:20:14.368Z,97681.23
2018-05-02T04:20:45.964Z,97681.70
2018-05-02T04:21:17.536Z,97674.91
2018-05-02T04:21:49.149Z,97673.56
2018-05-02T04:22:20.720Z,97678.64
2018-05-02T04:22:52.334Z,97677.74
2018-05-02T04:23:23.942Z,97682.41
2018-05-02T04:23:55.550Z,97677.73
2018-05-02T04:24:27.138Z,97672.20
2018-05-02T04:24:58.758Z,97679.43
2018-05-02T04:25:30.342Z,97678.99
2018-05-02T04:26:01.950Z,97680.27
2018-05-02T04:26:33.569Z,97677.66
2018-05-02T04:27:05.172Z,97685.31
2018-05-02T04:27:36.782Z,97690.44
2018-05-02T04:28:08.380Z,97682.75
2018-05-02T04:28:39.986Z,97685.74
2018-05-02T04:29:11.618Z,97689.56
2018-05-02T04:29:43.217Z,97689.14
2018-05-02T04:30:14.825Z,97687.00
2018-05-02T04:30:46.410Z,97688.66
2018-05-02T04:31:18.004Z,97690.83
2018-05-02T04:31:49.629Z,97688.66
2018-05-02T04:32:21.200Z,97687.85
2018-05-02T04:32:52.792Z,97689.08
2018-05-02T04:33:24.398Z,97694.20
2018-05-02T04:33:56.019Z,97688.66
2018-05-02T04:34:27.636Z,97687.00
2018-05-02T04:34:59.215Z,97689.94
2018-05-02T04:35:30.800Z,97686.95
2018-05-02T04:36:02.375Z,97695.89
2018-05-02T04:36:33.959Z,97690.12
2018-05-02T04:37:05.533Z,97690.16
2018-05-02T04:37:37.126Z,97681.14
2018-05-02T04:38:08.735Z,97684.97
2018-05-02T04:38:40.312Z,97684.60
2018-05-02T04:39:11.943Z,97688.88
2018-05-02T04:39:43.579Z,97689.16
2018-05-02T04:40:15.156Z,97686.56
2018-05-02T04:40:46.738Z,97685.25
2018-05-02T04:41:18.322Z,97686.97
2018-05-02T04:41:49.930Z,97688.12
2018-05-02T04:42:21.520Z,97687.05
2018-05-02T04:42:53.103Z,97688.05
2018-05-02T04:43:24.706Z,97684.70
2018-05-02T04:43:56.289Z,97695.73
2018-05-02T04:44:27.919Z,97696.33
2018-05-02T04:44:59.525Z,97692.64
2018-05-02T04:45:31.096Z,97694.00
2018-05-02T04:46:02.697Z,97697.05
2018-05-02T04:46:34.285Z,97693.41
2018-05-02T04:47:05.886Z,97699.38
2018-05-02T04:47:37.465Z,97695.19
2018-05-02T04:48:09.065Z,97696.50
2018-05-02T04:48:40.661Z,97700.69
2018-05-02T04:49:12.264Z,97694.38
2018-05-02T04:49:43.906Z,97691.41
2018-05-02T04:50:15.482Z,97690.06
2018-05-02T04:50:47.073Z,97688.16
2018-05-02T04:51:18.673Z,97689.45
2018-05-02T04:51:50.257Z,97690.33
2018-05-02T04:52:21.865Z,97693.25
2018-05-02T04:52:53.486Z,97687.69
2018-05-02T04:53:25.154Z,97693.66
2018-05-02T04:53:56.738Z,97688.95
2018-05-02T04:54:28.316Z,97690.70
2018-05-02T04:54:59.929Z,97690.36
2018-05-02T04:55:31.510Z,97696.84
2018-05-02T04:56:03.117Z,97689.28
2018-05-02T04:56:34.709Z,97685.14
2018-05-02T04:57:06.314Z,97680.59
2018-05-02T04:57:37.921Z,97682.48
2018-05-02T04:58:09.505Z,97687.77
2018-05-02T04:58:41.089Z,97679.05
2018-05-02T04:59:12.668Z,97682.22
2018-05-02T04:59:44.250Z,97677.81
2018-05-02T05:00:15.881Z,97679.32
2018-05-02T05:00:47.486Z,97677.37
2018-05-02T05:01:19.086Z,97677.58
2018-05-02T05:01:50.660Z,97676.59
2018-05-02T05:02:22.740Z,97677.32
2018-05-02T05:02:54.352Z,97683.97
2018-05-02T05:03:25.931Z,97679.11
2018-05-02T05:03:57.540Z,97679.41
2018-05-02T05:04:29.145Z,97675.90
2018-05-02T05:05:00.738Z,97674.46
2018-05-02T05:05:32.312Z,97678.99
2018-05-02T05:06:03.914Z,97695.45
2018-05-02T05:06:35.588Z,97674.86
2018-05-02T05:07:07.170Z,97672.65
2018-05-02T05:07:38.753Z,97675.52
2018-05-02T05:08:10.329Z,97677.51
2018-05-02T05:08:41.929Z,97677.78
2018-05-02T05:09:13.517Z,97676.41
2018-05-02T05:09:45.111Z,97675.13
2018-05-02T05:10:16.726Z,97681.08
2018-05-02T05:10:48.394Z,97681.86
2018-05-02T05:11:19.986Z,97676.27
2018-05-02T05:11:51.598Z,97683.03
2018-05-02T05:12:23.246Z,97676.58
2018-05-02T05:12:54.842Z,97680.34
2018-05-02T05:13:26.445Z,97680.77
2018-05-02T05:13:58.041Z,97677.36
2018-05-02T05:14:29.620Z,97668.83
2018-05-02T05:15:01.234Z,97678.11
2018-05-02T05:15:32.817Z,97683.17
2018-05-02T05:16:04.392Z,97679.75
2018-05-02T05:16:35.993Z,97680.95
2018-05-02T05:17:07.598Z,97678.74
2018-05-02T05:17:39.173Z,97684.30
2018-05-02T05:18:10.822Z,97680.02
2018-05-02T05:18:42.411Z,97680.43
2018-05-02T05:19:13.993Z,97681.15
2018-05-02T05:19:45.602Z,97682.07
2018-05-02T05:20:17.190Z,97670.55
2018-05-02T05:20:48.786Z,97674.84
2018-05-02T05:21:20.379Z,97673.61
2018-05-02T05:21:52.027Z,97674.89
2018-05-02T05:22:23.629Z,97680.88
2018-05-02T05:22:55.214Z,97679.60
2018-05-02T05:23:26.813Z,97680.89
2018-05-02T05:23:58.408Z,97680.52
2018-05-02T05:24:29.983Z,97679.26
2018-05-02T05:25:01.554Z,97680.46
2018-05-02T05:25:33.162Z,97682.25
2018-05-02T05:26:04.769Z,97679.24
2018-05-02T05:26:36.344Z,97683.03
2018-05-02T05:27:07.991Z,97687.80
2018-05-02T05:27:39.578Z,97683.94
2018-05-02T05:28:11.239Z,97683.53
2018-05-02T05:28:42.782Z,97684.81
2018-05-02T05:29:14.366Z,97689.92
2018-05-02T05:29:45.945Z,97680.95
2018-05-02T05:30:17.530Z,97684.80
2018-05-02T05:30:49.114Z,97687.71
2018-05-02T05:31:21.022Z,97687.71
2018-05-02T05:31:52.633Z,97687.78
2018-05-02T05:32:24.284Z,97685.22
2018-05-02T05:32:55.866Z,97686.17
2018-05-02T05:33:27.503Z,97687.50
2018-05-02T05:33:59.105Z,97688.50
2018-05-02T05:34:30.704Z,97691.44
2018-05-02T05:35:02.294Z,97691.94
2018-05-02T05:35:33.874Z,97689.44
2018-05-02T05:36:05.457Z,97691.98
2018-05-02T05:36:37.052Z,97694.93
2018-05-02T05:37:08.657Z,97694.58
2018-05-02T05:37:40.261Z,97700.95
2018-05-02T05:38:11.856Z,97699.25
2018-05-02T05:38:43.483Z,97701.38
2018-05-02T05:39:15.066Z,97703.58
2018-05-02T05:39:46.669Z,97701.44
2018-05-02T05:40:18.281Z,97703.95
2018-05-02T05:40:49.892Z,97707.42
2018-05-02T05:41:21.480Z,97710.41
2018-05-02T05:41:53.062Z,97713.50
2018-05-02T05:42:24.716Z,97709.23
2018-05-02T05:42:56.297Z,97709.71
2018-05-02T05:43:27.927Z,97711.02
2018-05-02T05:43:59.522Z,97716.17
2018-05-02T05:44:31.104Z,97709.78
2018-05-02T05:45:02.704Z,97712.36
2018-05-02T05:45:34.309Z,97707.69
2018-05-02T05:46:05.913Z,97708.59
2018-05-02T05:46:37.508Z,97710.29
2018-05-02T05:47:09.118Z,97703.90
2018-05-02T05:47:40.760Z,97701.38
2018-05-02T05:48:12.395Z,97706.11
2018-05-02T05:48:44.007Z,97702.66
2018-05-02T05:49:15.613Z,97706.13
2018-05-02T05:49:47.184Z,97707.47
2018-05-02T05:50:18.791Z,97706.20
2018-05-02T05:50:50.438Z,97709.20
2018-05-02T05:51:22.049Z,97699.82
2018-05-02T05:51:53.644Z,97707.00
2018-05-02T05:52:25.230Z,97703.59
2018-05-02T05:52:56.818Z,97704.91
2018-05-02T05:53:28.402Z,97704.51
2018-05-02T05:54:00.010Z,97699.05
2018-05-02T05:54:31.694Z,97704.14
2018-05-02T05:55:03.241Z,97706.22
2018-05-02T05:55:34.845Z,97708.00
2018-05-02T05:56:06.430Z,97704.22
2018-05-02T05:56:38.033Z,97699.55
2018-05-02T05:57:09.628Z,97706.37
2018-05-02T05:57:41.214Z,97707.30
2018-05-02T05:58:12.780Z,97706.00
2018-05-02T05:58:44.369Z,97714.48
2018-05-02T05:59:15.964Z,97709.84
2018-05-02T05:59:47.572Z,97706.39
2018-05-02T06:00:19.158Z,97710.27
2018-05-02T06:00:50.775Z,97711.56
2018-05-02T06:01:22.346Z,97705.23
2018-05-02T06:01:53.944Z,97709.92
2018-05-02T06:02:25.526Z,97707.37
2018-05-02T06:02:57.146Z,97710.44
2018-05-02T06:03:28.753Z,97718.47
2018-05-02T06:04:00.342Z,97715.55
2018-05-02T06:04:31.936Z,97712.59
2018-05-02T06:05:03.619Z,97717.28
2018-05-02T06:05:35.175Z,97718.55
2018-05-02T06:06:06.770Z,97718.55
2018-05-02T06:06:38.455Z,97725.34
2018-05-02T06:07:10.028Z,97719.30
2018-05-02T06:07:41.621Z,97715.92
2018-05-02T06:08:13.229Z,97722.36
2018-05-02T06:08:44.813Z,97725.37
2018-05-02T06:09:16.392Z,97724.14
2018-05-02T06:09:48.004Z,97722.87
2018-05-02T06:10:19.600Z,97722.87
2018-05-02T06:10:51.185Z,97723.78
2018-05-02T06:11:22.798Z,97722.87